Thompson Ridge, New York
Current Conditions -  °F | °C
As of 9:54 AM on Thursday 30 Oct 2014 (Local Time) from KMGJ Reporting Station
Clear Clear  
Wind Chill: 45°   Ceiling: Unl
Heat Index: 47°   Visibility: 10mi
Dew Point: 42°   Wind: 5mph
Humidity: 83%   Direction: 200°SSW
Pressure: 29.99"   Gusts: NA
Location:  41.57°N, 74.33°W
Report Text: KMGJ 301354Z AUTO 20004KT 10SM CLR 08/06 A2999 RMK AO2 SLP159 T00830056 TSNO
Loading
Personal Weather Stations






























Interactive Weather Map
Tropical Storm Tracking
New forecast layout! Learn more

10-Day Weather Forecast

Advertisements
Track Severe Weather on mobile